createdAt,value
2019-04-30T00:00:01.150Z,3.17
2019-04-30T00:01:18.895Z,3.83
2019-04-30T00:02:27.734Z,3.00
2019-04-30T00:03:46.163Z,4.10
2019-04-30T00:04:51.849Z,3.20
2019-04-30T00:05:57.564Z,3.20
2019-04-30T00:07:01.112Z,3.43
2019-04-30T00:08:05.807Z,3.17
2019-04-30T00:09:15.133Z,3.33
2019-04-30T00:10:17.264Z,4.00
2019-04-30T00:11:20.988Z,3.77
2019-04-30T00:12:25.750Z,3.70
2019-04-30T00:13:29.543Z,3.27
2019-04-30T00:14:38.609Z,3.23
2019-04-30T00:15:38.779Z,3.40
2019-04-30T00:16:42.329Z,3.10
2019-04-30T00:17:48.831Z,3.50
2019-04-30T00:18:59.819Z,3.50
2019-04-30T00:19:59.842Z,3.60
2019-04-30T00:21:02.240Z,3.50
2019-04-30T00:22:05.918Z,3.60
2019-04-30T00:23:09.572Z,3.63
2019-04-30T00:24:13.202Z,3.30
2019-04-30T00:25:19.723Z,4.00
2019-04-30T00:26:22.421Z,3.63
2019-04-30T00:27:30.071Z,3.50
2019-04-30T00:28:31.547Z,2.93
2019-04-30T00:29:35.713Z,3.90
2019-04-30T00:30:43.828Z,3.20
2019-04-30T00:31:47.112Z,3.63
2019-04-30T00:32:50.935Z,3.30
2019-04-30T00:33:57.855Z,2.90
2019-04-30T00:35:00.275Z,4.13
2019-04-30T00:36:05.005Z,4.30
2019-04-30T00:37:13.815Z,3.07
2019-04-30T00:38:15.155Z,3.27
2019-04-30T00:39:19.026Z,3.40
2019-04-30T00:40:27.889Z,3.30
2019-04-30T00:41:30.182Z,3.57
2019-04-30T00:42:33.488Z,3.90
2019-04-30T00:43:37.784Z,3.63
2019-04-30T00:44:42.618Z,4.57
2019-04-30T00:45:47.545Z,3.47
2019-04-30T00:46:51.328Z,3.90
2019-04-30T00:47:55.983Z,3.40
2019-04-30T00:49:09.376Z,3.40
2019-04-30T00:50:06.900Z,3.90
2019-04-30T00:51:18.177Z,3.70
2019-04-30T00:52:15.938Z,3.90
2019-04-30T00:53:19.571Z,4.10
2019-04-30T00:54:29.372Z,4.00
2019-04-30T00:55:28.655Z,4.30
2019-04-30T00:56:32.220Z,4.10
2019-04-30T00:57:37.261Z,3.77
2019-04-30T00:58:41.592Z,4.03
2019-04-30T00:59:47.967Z,3.80
2019-04-30T01:01:06.766Z,4.40
2019-04-30T01:02:11.672Z,4.07
2019-04-30T01:03:17.566Z,4.27
2019-04-30T01:04:28.643Z,4.47
2019-04-30T01:05:32.307Z,4.43
2019-04-30T01:06:35.980Z,4.60
2019-04-30T01:07:48.116Z,4.10
2019-04-30T01:08:46.122Z,4.17
2019-04-30T01:09:50.116Z,4.20
2019-04-30T01:10:55.516Z,3.50
2019-04-30T01:11:59.298Z,3.70
2019-04-30T01:13:08.282Z,4.13
2019-04-30T01:14:09.815Z,3.40
2019-04-30T01:15:14.675Z,3.70
2019-04-30T01:16:19.548Z,3.50
2019-04-30T01:17:23.308Z,3.03
2019-04-30T01:18:28.632Z,3.97
2019-04-30T01:19:33.038Z,3.43
2019-04-30T01:20:38.596Z,3.40
2019-04-30T01:21:47.155Z,3.40
2019-04-30T01:22:48.660Z,3.03
2019-04-30T01:23:54.793Z,3.70
2019-04-30T01:25:01.306Z,3.27
2019-04-30T01:26:04.210Z,3.50
2019-04-30T01:27:10.438Z,3.23
2019-04-30T01:28:16.328Z,3.57
2019-04-30T01:29:20.524Z,3.00
2019-04-30T01:30:24.259Z,3.37
2019-04-30T01:31:31.642Z,3.03
2019-04-30T01:32:33.333Z,3.27
2019-04-30T01:33:38.896Z,2.90
2019-04-30T01:34:44.344Z,3.17
2019-04-30T01:35:48.791Z,3.20
2019-04-30T01:36:52.521Z,3.43
2019-04-30T01:37:56.149Z,3.40
2019-04-30T01:38:59.872Z,3.47
2019-04-30T01:40:10.637Z,3.17
2019-04-30T01:41:10.226Z,3.43
2019-04-30T01:42:13.925Z,3.17
2019-04-30T01:43:23.128Z,3.63
2019-04-30T01:44:22.939Z,3.43
2019-04-30T01:45:28.165Z,3.27
2019-04-30T01:46:32.012Z,3.77
2019-04-30T01:47:35.641Z,3.53
2019-04-30T01:48:39.442Z,3.67
2019-04-30T01:49:44.915Z,3.67
2019-04-30T01:50:48.872Z,3.10
2019-04-30T01:51:56.906Z,3.67
2019-04-30T01:52:59.118Z,3.03
2019-04-30T01:54:02.943Z,2.90
2019-04-30T01:55:08.471Z,3.00
2019-04-30T01:56:16.846Z,3.23
2019-04-30T01:57:22.128Z,3.33
2019-04-30T01:58:45.859Z,2.63
2019-04-30T02:00:03.074Z,3.33
2019-04-30T02:01:20.311Z,3.17
2019-04-30T02:02:25.593Z,2.90
2019-04-30T02:03:29.337Z,3.47
2019-04-30T02:04:33.036Z,3.37
2019-04-30T02:05:38.568Z,3.67
2019-04-30T02:06:42.568Z,3.50
2019-04-30T02:07:46.245Z,3.63
2019-04-30T02:08:49.900Z,3.80
2019-04-30T02:09:53.550Z,3.67
2019-04-30T02:10:59.260Z,4.27
2019-04-30T02:12:02.653Z,3.17
2019-04-30T02:13:06.346Z,4.30
2019-04-30T02:14:09.984Z,3.93
2019-04-30T02:15:13.832Z,3.90
2019-04-30T02:16:18.757Z,4.10
2019-04-30T02:17:22.862Z,4.50
2019-04-30T02:18:26.521Z,4.60
2019-04-30T02:19:31.207Z,4.30
2019-04-30T02:20:35.000Z,4.23
2019-04-30T02:21:38.693Z,4.87
2019-04-30T02:22:42.385Z,4.70
2019-04-30T02:23:46.041Z,4.60
2019-04-30T02:24:49.698Z,4.73
2019-04-30T02:25:53.353Z,4.50
2019-04-30T02:26:56.982Z,4.30
2019-04-30T02:28:00.666Z,4.23
2019-04-30T02:29:04.304Z,3.80
2019-04-30T02:30:11.107Z,3.90
2019-04-30T02:31:15.174Z,4.40
2019-04-30T02:32:20.778Z,4.97
2019-04-30T02:33:24.504Z,4.00
2019-04-30T02:34:49.800Z,3.33
2019-04-30T02:36:00.376Z,3.67
2019-04-30T02:37:09.996Z,3.70
2019-04-30T02:38:20.171Z,5.67
2019-04-30T02:39:23.316Z,10.63
2019-04-30T02:40:30.185Z,5.87
2019-04-30T02:41:34.740Z,5.33
2019-04-30T02:42:39.839Z,4.27
2019-04-30T02:43:43.968Z,4.17
2019-04-30T02:44:50.349Z,3.40
2019-04-30T02:45:55.923Z,4.40
2019-04-30T02:47:01.058Z,4.17
2019-04-30T02:48:05.886Z,3.70
2019-04-30T02:49:12.043Z,3.77
2019-04-30T02:50:19.758Z,4.17
2019-04-30T02:51:23.520Z,3.60
2019-04-30T02:52:29.388Z,3.80
2019-04-30T02:54:03.592Z,4.10
2019-04-30T02:55:10.108Z,3.30
2019-04-30T02:56:13.800Z,3.73
2019-04-30T02:57:20.428Z,3.67
2019-04-30T02:58:22.807Z,3.53
2019-04-30T02:59:26.458Z,3.90
2019-04-30T03:00:32.856Z,4.00
2019-04-30T03:01:35.479Z,4.40
2019-04-30T03:02:39.591Z,3.53
2019-04-30T03:03:43.330Z,3.80
2019-04-30T03:04:46.982Z,3.83
2019-04-30T03:05:50.623Z,3.77
2019-04-30T03:07:00.449Z,3.73
2019-04-30T03:08:04.119Z,4.00
2019-04-30T03:09:10.363Z,4.13
2019-04-30T03:10:13.768Z,4.20
2019-04-30T03:11:20.303Z,3.50
2019-04-30T03:12:22.824Z,3.97
2019-04-30T03:13:26.457Z,3.93
2019-04-30T03:14:31.357Z,4.30
2019-04-30T03:15:35.010Z,3.83
2019-04-30T03:16:55.340Z,3.97
2019-04-30T03:18:03.690Z,4.00
2019-04-30T03:19:25.002Z,4.23
2019-04-30T03:20:46.536Z,3.83
2019-04-30T03:21:51.817Z,4.07
2019-04-30T03:22:55.468Z,3.93
2019-04-30T03:24:00.577Z,4.10
2019-04-30T03:25:05.848Z,4.83
2019-04-30T03:26:12.839Z,5.10
2019-04-30T03:27:14.873Z,4.63
2019-04-30T03:28:20.172Z,6.27
2019-04-30T03:29:24.222Z,5.20
2019-04-30T03:30:31.833Z,6.43
2019-04-30T03:31:33.311Z,5.60
2019-04-30T03:32:42.281Z,5.80
2019-04-30T03:33:42.826Z,5.93
2019-04-30T03:34:51.114Z,5.73
2019-04-30T03:35:54.236Z,5.33
2019-04-30T03:37:01.644Z,5.47
2019-04-30T03:38:02.695Z,5.80
2019-04-30T03:39:10.352Z,5.83
2019-04-30T03:40:13.377Z,5.30
2019-04-30T03:41:19.747Z,5.77
2019-04-30T03:42:22.624Z,5.33
2019-04-30T03:43:26.641Z,4.70
2019-04-30T03:44:32.461Z,5.00
2019-04-30T03:45:35.715Z,5.00
2019-04-30T03:46:40.260Z,5.07
2019-04-30T03:47:44.163Z,4.57
2019-04-30T03:48:50.379Z,4.87
2019-04-30T03:49:53.572Z,4.90
2019-04-30T03:50:58.589Z,5.07
2019-04-30T03:52:02.637Z,4.90
2019-04-30T03:53:06.271Z,4.97
2019-04-30T03:54:10.492Z,4.97
2019-04-30T03:55:14.313Z,4.53
2019-04-30T03:56:20.019Z,4.40
2019-04-30T03:57:23.477Z,7.17
2019-04-30T03:58:29.223Z,4.87
2019-04-30T03:59:32.669Z,11.03
2019-04-30T04:00:50.288Z,5.30
2019-04-30T04:02:04.484Z,4.90
2019-04-30T04:03:10.167Z,5.43
2019-04-30T04:04:20.070Z,5.10
2019-04-30T04:05:24.967Z,4.97
2019-04-30T04:06:30.636Z,4.50
2019-04-30T04:07:56.237Z,4.67
2019-04-30T04:09:01.510Z,5.23
2019-04-30T04:10:10.524Z,5.20
2019-04-30T04:11:15.804Z,4.83
2019-04-30T04:12:30.537Z,4.43
2019-04-30T04:13:34.499Z,4.90
2019-04-30T04:14:39.417Z,4.23
2019-04-30T04:15:44.575Z,4.60
2019-04-30T04:16:50.965Z,5.17
2019-04-30T04:17:53.705Z,4.60
2019-04-30T04:18:59.452Z,4.90
2019-04-30T04:20:03.212Z,6.73
2019-04-30T04:21:16.044Z,5.50
2019-04-30T04:22:13.383Z,4.93
2019-04-30T04:23:19.257Z,5.00
2019-04-30T04:24:22.456Z,5.73
2019-04-30T04:25:26.086Z,4.57
2019-04-30T04:26:30.056Z,5.13
2019-04-30T04:27:33.770Z,4.63
2019-04-30T04:28:43.071Z,4.80
2019-04-30T04:29:43.283Z,4.97
2019-04-30T04:30:50.283Z,7.40
2019-04-30T04:31:52.295Z,5.30
2019-04-30T04:32:55.977Z,6.20
2019-04-30T04:34:00.208Z,5.93
2019-04-30T04:35:05.176Z,5.20
2019-04-30T04:36:09.308Z,5.77
2019-04-30T04:37:13.108Z,5.43
2019-04-30T04:38:20.646Z,5.30
2019-04-30T04:39:24.680Z,5.67
2019-04-30T04:40:30.237Z,5.80
2019-04-30T04:41:33.726Z,5.73
2019-04-30T04:42:39.622Z,5.73
2019-04-30T04:43:42.747Z,5.97
2019-04-30T04:44:46.376Z,5.77
2019-04-30T04:45:50.274Z,5.77
2019-04-30T04:46:54.499Z,5.80
2019-04-30T04:48:00.127Z,5.83
2019-04-30T04:49:03.534Z,4.60
2019-04-30T04:50:10.297Z,4.87
2019-04-30T04:51:27.669Z,4.80
2019-04-30T04:52:21.638Z,4.80
2019-04-30T04:53:24.361Z,4.53
2019-04-30T04:54:30.032Z,5.30
2019-04-30T04:55:33.425Z,4.30
2019-04-30T04:56:37.069Z,4.50
2019-04-30T04:57:40.710Z,4.63
2019-04-30T04:58:44.368Z,4.60
2019-04-30T04:59:49.957Z,5.60
2019-04-30T05:00:53.394Z,5.60
2019-04-30T05:01:57.099Z,5.63
2019-04-30T05:03:11.208Z,5.60
2019-04-30T05:04:14.842Z,6.20
2019-04-30T05:05:19.446Z,5.67
2019-04-30T05:06:23.316Z,5.97
2019-04-30T05:07:28.652Z,6.40
2019-04-30T05:08:32.413Z,5.33
2019-04-30T05:09:36.097Z,5.87
2019-04-30T05:10:39.745Z,5.63
2019-04-30T05:11:43.403Z,5.87
2019-04-30T05:12:50.578Z,5.10
2019-04-30T05:13:52.831Z,5.40
2019-04-30T05:14:56.477Z,4.40
2019-04-30T05:16:00.132Z,5.20
2019-04-30T05:17:03.805Z,6.47
2019-04-30T05:18:09.121Z,5.73
2019-04-30T05:19:12.832Z,5.47
2019-04-30T05:20:16.540Z,6.00
2019-04-30T05:21:20.231Z,4.90
2019-04-30T05:22:23.879Z,5.27
2019-04-30T05:23:29.669Z,5.80
2019-04-30T05:24:32.928Z,6.03
2019-04-30T05:25:36.581Z,7.40
2019-04-30T05:26:40.380Z,7.60
2019-04-30T05:27:44.426Z,7.30
2019-04-30T05:28:51.108Z,8.60
2019-04-30T05:29:53.567Z,7.73
2019-04-30T05:30:59.235Z,8.20
2019-04-30T05:32:02.684Z,6.73
2019-04-30T05:33:06.386Z,6.53
2019-04-30T05:34:10.376Z,6.80
2019-04-30T05:35:14.165Z,4.77
2019-04-30T05:36:19.199Z,5.30
2019-04-30T05:37:23.040Z,5.00
2019-04-30T05:38:29.020Z,4.00
2019-04-30T05:39:32.183Z,4.37
2019-04-30T05:40:35.833Z,3.50
2019-04-30T05:41:41.144Z,4.53
2019-04-30T05:42:44.909Z,4.03
2019-04-30T05:43:48.998Z,4.17
2019-04-30T05:44:52.810Z,3.87
2019-04-30T05:45:58.531Z,3.93
2019-04-30T05:47:01.812Z,4.93
2019-04-30T05:48:05.654Z,3.97
2019-04-30T05:49:12.322Z,4.60
2019-04-30T05:50:16.379Z,4.53
2019-04-30T05:51:21.296Z,3.97
2019-04-30T05:52:25.008Z,3.30
2019-04-30T05:53:28.871Z,3.90
2019-04-30T05:54:32.628Z,3.70
2019-04-30T05:55:39.548Z,4.03
2019-04-30T05:56:43.217Z,4.10
2019-04-30T05:57:53.853Z,3.60
2019-04-30T05:58:52.271Z,3.57
2019-04-30T05:59:56.120Z,3.03
2019-04-30T06:00:59.989Z,3.53
2019-04-30T06:02:03.662Z,3.50
2019-04-30T06:03:09.307Z,3.03
2019-04-30T06:04:12.768Z,4.03
2019-04-30T06:05:16.502Z,3.77
2019-04-30T06:06:20.163Z,4.27
2019-04-30T06:07:24.013Z,4.70
2019-04-30T06:08:32.788Z,3.87
2019-04-30T06:09:56.582Z,4.10
2019-04-30T06:11:01.907Z,3.63
2019-04-30T06:12:22.693Z,3.87
2019-04-30T06:13:28.725Z,3.70
2019-04-30T06:14:48.349Z,3.43
2019-04-30T06:15:48.879Z,4.83
2019-04-30T06:17:10.101Z,3.90
2019-04-30T06:18:14.130Z,4.47
2019-04-30T06:19:19.514Z,3.20
2019-04-30T06:20:23.422Z,3.37
2019-04-30T06:21:29.353Z,4.20
2019-04-30T06:22:32.919Z,4.00
2019-04-30T06:23:36.614Z,3.73
2019-04-30T06:24:40.671Z,3.43
2019-04-30T06:25:56.390Z,4.53
2019-04-30T06:26:49.838Z,3.63
2019-04-30T06:27:53.877Z,3.77
2019-04-30T06:28:59.272Z,4.00
2019-04-30T06:30:03.327Z,4.30
2019-04-30T06:31:09.017Z,3.60
2019-04-30T06:32:12.418Z,3.53
2019-04-30T06:33:16.152Z,3.83
2019-04-30T06:34:20.740Z,3.80
2019-04-30T06:35:24.811Z,4.00
2019-04-30T06:36:29.145Z,3.37
2019-04-30T06:37:32.803Z,3.57
2019-04-30T06:38:36.441Z,3.00
2019-04-30T06:39:40.122Z,3.73
2019-04-30T06:40:44.465Z,3.50
2019-04-30T06:41:49.398Z,3.60
2019-04-30T06:42:53.238Z,3.77
2019-04-30T06:43:58.661Z,3.40
2019-04-30T06:45:02.660Z,4.10
2019-04-30T06:46:06.296Z,3.93
2019-04-30T06:47:10.458Z,4.10
2019-04-30T06:48:17.043Z,3.57
2019-04-30T06:49:23.577Z,3.73
2019-04-30T06:50:29.167Z,3.57
2019-04-30T06:51:33.704Z,3.27
2019-04-30T06:52:39.015Z,3.17
2019-04-30T06:53:42.742Z,3.30
2019-04-30T06:54:46.449Z,3.30
2019-04-30T06:55:50.085Z,3.33
2019-04-30T06:56:54.119Z,3.20
2019-04-30T06:58:11.526Z,3.07
2019-04-30T06:59:09.239Z,3.00
2019-04-30T07:00:16.195Z,3.13
2019-04-30T07:01:19.871Z,3.00
2019-04-30T07:02:23.530Z,3.50
2019-04-30T07:03:28.932Z,3.30
2019-04-30T07:04:32.558Z,3.40
2019-04-30T07:05:37.070Z,3.03
2019-04-30T07:06:45.112Z,3.23
2019-04-30T07:08:09.815Z,3.57
2019-04-30T07:09:19.790Z,3.63
2019-04-30T07:10:25.057Z,3.37
2019-04-30T07:11:36.089Z,2.97
2019-04-30T07:12:49.062Z,3.80
2019-04-30T07:13:53.077Z,3.40
2019-04-30T07:14:56.745Z,3.87
2019-04-30T07:16:00.458Z,3.57
2019-04-30T07:17:04.171Z,3.47
2019-04-30T07:18:09.089Z,3.70
2019-04-30T07:19:12.877Z,3.80
2019-04-30T07:20:18.963Z,3.37
2019-04-30T07:21:21.900Z,3.27
2019-04-30T07:22:37.703Z,2.93
2019-04-30T07:23:30.930Z,4.00
2019-04-30T07:24:34.783Z,4.33
2019-04-30T07:25:41.336Z,3.60
2019-04-30T07:26:45.004Z,3.63
2019-04-30T07:27:50.585Z,4.10
2019-04-30T07:28:55.447Z,3.60
2019-04-30T07:30:01.017Z,3.57
2019-04-30T07:31:11.776Z,3.53
2019-04-30T07:32:10.200Z,3.77
2019-04-30T07:33:14.513Z,3.47
2019-04-30T07:34:19.664Z,3.83
2019-04-30T07:35:25.140Z,3.30
2019-04-30T07:36:45.212Z,3.77
2019-04-30T07:37:36.248Z,3.80
2019-04-30T07:38:45.024Z,3.93
2019-04-30T07:39:45.375Z,3.20
2019-04-30T07:40:49.376Z,3.50
2019-04-30T07:41:53.112Z,3.07
2019-04-30T07:42:58.936Z,3.37
2019-04-30T07:44:02.136Z,3.10
2019-04-30T07:45:09.680Z,3.67
2019-04-30T07:46:13.435Z,3.30
2019-04-30T07:47:19.425Z,3.30
2019-04-30T07:48:26.423Z,3.37
2019-04-30T07:49:46.201Z,3.30
2019-04-30T07:50:33.917Z,3.90
2019-04-30T07:51:41.330Z,2.77
2019-04-30T07:53:01.040Z,3.60
2019-04-30T07:53:49.588Z,3.70
2019-04-30T07:54:53.635Z,3.73
2019-04-30T07:55:58.824Z,3.47
2019-04-30T07:57:02.559Z,3.23
2019-04-30T07:58:06.225Z,3.10
2019-04-30T07:59:11.075Z,3.13
2019-04-30T08:00:15.006Z,3.07
2019-04-30T08:01:19.715Z,3.50
2019-04-30T08:02:24.582Z,3.20
2019-04-30T08:03:30.833Z,3.20
2019-04-30T08:04:51.733Z,3.00
2019-04-30T08:06:00.097Z,2.80
2019-04-30T08:07:05.284Z,2.73
2019-04-30T08:08:21.079Z,3.07
2019-04-30T08:09:14.726Z,3.07
2019-04-30T08:10:20.895Z,3.90
2019-04-30T08:11:26.484Z,3.30
2019-04-30T08:12:36.101Z,2.90
2019-04-30T08:13:37.512Z,3.10
2019-04-30T08:14:41.969Z,3.27
2019-04-30T08:15:47.068Z,2.90
2019-04-30T08:16:51.118Z,2.67
2019-04-30T08:18:03.480Z,3.40
2019-04-30T08:19:00.289Z,2.90
2019-04-30T08:20:05.486Z,2.70
2019-04-30T08:21:11.724Z,2.90
2019-04-30T08:22:15.367Z,3.10
2019-04-30T08:23:34.099Z,3.50
2019-04-30T08:24:26.578Z,3.13
2019-04-30T08:25:30.214Z,3.53
2019-04-30T08:26:33.887Z,3.40
2019-04-30T08:27:39.276Z,2.90
2019-04-30T08:28:43.393Z,2.90
2019-04-30T08:29:49.952Z,2.83
2019-04-30T08:30:53.844Z,2.77
2019-04-30T08:31:59.364Z,2.90
2019-04-30T08:33:04.451Z,2.77
2019-04-30T08:34:10.715Z,3.00
2019-04-30T08:35:13.584Z,2.80
2019-04-30T08:36:17.220Z,2.97
2019-04-30T08:37:20.906Z,2.70
2019-04-30T08:38:24.618Z,2.97
2019-04-30T08:39:29.496Z,2.80
2019-04-30T08:40:33.649Z,2.73
2019-04-30T08:41:39.189Z,3.07
2019-04-30T08:42:42.695Z,2.77
2019-04-30T08:43:46.429Z,3.13
2019-04-30T08:44:50.084Z,2.73
2019-04-30T08:45:53.738Z,3.07
2019-04-30T08:46:59.053Z,3.27
2019-04-30T08:48:02.831Z,2.90
2019-04-30T08:49:08.750Z,2.80
2019-04-30T08:50:11.976Z,2.87
2019-04-30T08:51:15.763Z,3.43
2019-04-30T08:52:20.197Z,2.60
2019-04-30T08:53:29.207Z,3.00
2019-04-30T08:54:30.054Z,2.97
2019-04-30T08:55:34.188Z,3.17
2019-04-30T08:56:38.822Z,2.70
2019-04-30T08:57:42.588Z,2.80
2019-04-30T08:58:46.219Z,2.83
2019-04-30T08:59:49.886Z,2.57
2019-04-30T09:00:53.654Z,2.77
2019-04-30T09:01:58.876Z,2.00
2019-04-30T09:03:02.698Z,2.33
2019-04-30T09:04:07.684Z,2.97
2019-04-30T09:05:18.450Z,2.70
2019-04-30T09:06:23.789Z,2.53
2019-04-30T09:07:29.670Z,2.73
2019-04-30T09:08:33.335Z,1.93
2019-04-30T09:09:38.894Z,1.97
2019-04-30T09:10:42.352Z,2.07
2019-04-30T09:11:53.012Z,2.57
2019-04-30T09:12:51.953Z,2.80
2019-04-30T09:13:55.896Z,2.47
2019-04-30T09:14:59.575Z,2.10
2019-04-30T09:16:05.313Z,2.60
2019-04-30T09:17:09.325Z,2.13
2019-04-30T09:18:13.018Z,2.50
2019-04-30T09:19:17.027Z,2.60
2019-04-30T09:20:21.802Z,2.60
2019-04-30T09:21:25.485Z,2.58
2019-04-30T09:22:29.372Z,2.47
2019-04-30T09:23:47.348Z,2.70
2019-04-30T09:24:41.061Z,2.30
2019-04-30T09:25:44.767Z,2.65
2019-04-30T09:26:49.287Z,2.50
2019-04-30T09:27:53.113Z,2.50
2019-04-30T09:28:56.765Z,2.60
2019-04-30T09:30:00.604Z,2.58
2019-04-30T09:31:04.262Z,2.67
2019-04-30T09:32:09.178Z,2.45
2019-04-30T09:33:13.265Z,2.45
2019-04-30T09:34:20.637Z,2.98
2019-04-30T09:35:23.625Z,2.67
2019-04-30T09:36:29.230Z,2.72
2019-04-30T09:37:33.144Z,2.42
2019-04-30T09:38:38.814Z,2.37
2019-04-30T09:39:43.758Z,3.00
2019-04-30T09:40:47.565Z,2.45
2019-04-30T09:41:51.335Z,2.17
2019-04-30T09:42:55.118Z,2.30
2019-04-30T09:43:59.745Z,2.60
2019-04-30T09:45:03.887Z,2.85
2019-04-30T09:46:18.704Z,2.40
2019-04-30T09:47:13.736Z,3.00
2019-04-30T09:48:19.029Z,3.10
2019-04-30T09:49:22.959Z,2.98
2019-04-30T09:50:28.651Z,3.27
2019-04-30T09:51:32.686Z,2.37
2019-04-30T09:52:39.218Z,1.85
2019-04-30T09:53:42.111Z,1.95
2019-04-30T09:54:47.184Z,1.43
2019-04-30T09:55:50.870Z,1.20
2019-04-30T09:56:54.526Z,1.50
2019-04-30T09:57:58.857Z,1.40
2019-04-30T09:59:02.621Z,1.37
2019-04-30T10:00:09.456Z,1.33
2019-04-30T10:01:13.074Z,1.20
2019-04-30T10:02:18.919Z,1.53
2019-04-30T10:03:23.040Z,0.90
2019-04-30T10:04:29.754Z,2.43
2019-04-30T10:05:32.491Z,1.70
2019-04-30T10:06:40.009Z,1.80
2019-04-30T10:07:41.621Z,2.40
2019-04-30T10:08:48.645Z,2.90
2019-04-30T10:09:51.039Z,2.50
2019-04-30T10:11:12.802Z,4.00
2019-04-30T10:12:19.681Z,2.90
2019-04-30T10:13:23.518Z,3.30
2019-04-30T10:14:28.862Z,2.23
2019-04-30T10:15:37.322Z,2.57
2019-04-30T10:16:54.541Z,2.57
2019-04-30T10:17:58.552Z,1.90
2019-04-30T10:19:02.189Z,2.13
2019-04-30T10:20:11.485Z,2.30
2019-04-30T10:21:15.743Z,2.20
2019-04-30T10:22:19.478Z,2.70
2019-04-30T10:23:23.281Z,2.43
2019-04-30T10:24:29.345Z,2.13
2019-04-30T10:25:32.721Z,2.23
2019-04-30T10:26:37.372Z,3.10
2019-04-30T10:27:41.061Z,2.40
2019-04-30T10:28:46.395Z,2.67
2019-04-30T10:29:50.228Z,2.20
2019-04-30T10:30:53.952Z,1.97
2019-04-30T10:31:58.770Z,1.97
2019-04-30T10:33:02.972Z,2.00
2019-04-30T10:34:06.618Z,3.37
2019-04-30T10:35:10.294Z,3.63
2019-04-30T10:36:14.073Z,2.87
2019-04-30T10:37:18.898Z,2.47
2019-04-30T10:38:22.814Z,2.50
2019-04-30T10:39:29.660Z,1.70
2019-04-30T10:40:32.846Z,1.90
2019-04-30T10:41:36.656Z,3.10
2019-04-30T10:42:40.295Z,3.10
2019-04-30T10:43:43.974Z,6.83
2019-04-30T10:44:47.609Z,4.03
2019-04-30T10:45:51.815Z,5.40
2019-04-30T10:46:55.768Z,2.90
2019-04-30T10:47:59.460Z,2.90
2019-04-30T10:49:03.193Z,2.90
2019-04-30T10:50:10.260Z,2.90
2019-04-30T10:51:13.926Z,2.20
2019-04-30T10:52:19.185Z,2.30
2019-04-30T10:53:23.108Z,1.93
2019-04-30T10:54:28.897Z,1.90
2019-04-30T10:55:32.228Z,1.77
2019-04-30T10:56:36.338Z,1.50
2019-04-30T10:57:39.975Z,1.70
2019-04-30T10:58:43.710Z,1.60
2019-04-30T10:59:50.526Z,1.67
2019-04-30T11:00:54.181Z,2.10
2019-04-30T11:01:59.210Z,1.60
2019-04-30T11:03:03.076Z,1.30
2019-04-30T11:04:07.774Z,1.42
2019-04-30T11:05:12.184Z,1.70
2019-04-30T11:06:16.126Z,3.37
2019-04-30T11:07:19.852Z,1.95
2019-04-30T11:08:23.623Z,1.10
2019-04-30T11:09:30.699Z,1.60
2019-04-30T11:10:35.035Z,1.80
2019-04-30T11:11:39.742Z,1.37
2019-04-30T11:12:43.831Z,1.47
2019-04-30T11:13:47.463Z,1.62
2019-04-30T11:14:51.116Z,1.60
2019-04-30T11:15:54.762Z,1.63
2019-04-30T11:17:02.078Z,1.50
2019-04-30T11:18:06.101Z,1.35
2019-04-30T11:19:10.106Z,1.22
2019-04-30T11:20:15.179Z,1.30
2019-04-30T11:21:19.744Z,1.40
2019-04-30T11:22:23.889Z,1.40
2019-04-30T11:23:29.592Z,1.25
2019-04-30T11:24:37.890Z,1.07
2019-04-30T11:25:41.265Z,1.80
2019-04-30T11:26:44.848Z,1.40
2019-04-30T11:27:50.553Z,1.37
2019-04-30T11:28:54.730Z,1.42
2019-04-30T11:30:03.587Z,1.40
2019-04-30T11:31:14.962Z,1.52
2019-04-30T11:32:20.677Z,1.60
2019-04-30T11:33:24.762Z,2.30
2019-04-30T11:34:28.512Z,1.77
2019-04-30T11:35:32.176Z,2.30
2019-04-30T11:36:35.889Z,1.60
2019-04-30T11:37:39.517Z,4.53
2019-04-30T11:38:43.152Z,1.25
2019-04-30T11:39:46.899Z,1.70
2019-04-30T11:40:50.526Z,1.22
2019-04-30T11:41:54.222Z,1.35
2019-04-30T11:42:57.867Z,1.37
2019-04-30T11:44:01.490Z,1.40
2019-04-30T11:45:09.503Z,1.40
2019-04-30T11:46:24.965Z,1.50
2019-04-30T11:47:30.297Z,1.50
2019-04-30T11:48:33.943Z,1.25
2019-04-30T11:49:37.653Z,1.80
2019-04-30T11:50:41.385Z,1.30
2019-04-30T11:51:45.079Z,1.10
2019-04-30T11:52:48.767Z,1.60
2019-04-30T11:53:52.466Z,1.47
2019-04-30T11:54:56.580Z,1.32
2019-04-30T11:56:00.218Z,1.47
2019-04-30T11:57:03.849Z,1.40
2019-04-30T11:58:20.730Z,1.22
2019-04-30T11:59:13.347Z,1.37
2019-04-30T12:00:19.011Z,1.35
2019-04-30T12:01:27.359Z,1.50
2019-04-30T12:02:35.739Z,1.25
2019-04-30T12:03:39.489Z,1.57
2019-04-30T12:04:43.108Z,1.70
2019-04-30T12:05:48.833Z,1.75
2019-04-30T12:06:53.503Z,1.77
2019-04-30T12:07:59.741Z,1.60
2019-04-30T12:09:09.134Z,1.70
2019-04-30T12:10:14.726Z,1.52
2019-04-30T12:11:20.016Z,1.70
2019-04-30T12:12:24.660Z,1.17
2019-04-30T12:13:29.944Z,1.20
2019-04-30T12:14:33.585Z,1.10
2019-04-30T12:15:37.247Z,0.93
2019-04-30T12:16:40.883Z,1.12
2019-04-30T12:17:44.600Z,1.35
2019-04-30T12:18:48.252Z,1.20
2019-04-30T12:19:51.947Z,1.10
2019-04-30T12:20:55.612Z,0.95
2019-04-30T12:21:59.265Z,1.20
2019-04-30T12:23:03.230Z,1.77
2019-04-30T12:24:07.821Z,1.05
2019-04-30T12:25:11.758Z,1.55
2019-04-30T12:26:15.467Z,1.25
2019-04-30T12:27:19.209Z,1.10
2019-04-30T12:28:22.858Z,0.80
2019-04-30T12:29:26.494Z,1.00
2019-04-30T12:30:30.232Z,1.20
2019-04-30T12:31:33.881Z,5.72
2019-04-30T12:32:39.178Z,2.30
2019-04-30T12:33:43.049Z,0.90
2019-04-30T12:34:46.795Z,1.27
2019-04-30T12:35:51.326Z,1.72
2019-04-30T12:36:55.188Z,2.25
2019-04-30T12:37:58.929Z,1.20
2019-04-30T12:39:02.703Z,1.02
2019-04-30T12:40:10.797Z,1.50
2019-04-30T12:41:13.879Z,1.30
2019-04-30T12:42:18.838Z,3.17
2019-04-30T12:43:22.746Z,0.98
2019-04-30T12:44:26.394Z,0.95
2019-04-30T12:45:30.189Z,1.22
2019-04-30T12:46:33.861Z,0.90
2019-04-30T12:47:39.169Z,0.62
2019-04-30T12:48:50.478Z,0.70
2019-04-30T12:50:12.255Z,1.50
2019-04-30T12:51:23.546Z,0.95
2019-04-30T12:52:31.872Z,1.02
2019-04-30T12:53:43.174Z,0.95
2019-04-30T12:54:57.127Z,1.02
2019-04-30T12:56:05.398Z,1.12
2019-04-30T12:57:11.161Z,1.20
2019-04-30T12:58:15.017Z,1.40
2019-04-30T12:59:18.641Z,1.10
2019-04-30T13:00:22.506Z,1.10
2019-04-30T13:01:26.306Z,1.30
2019-04-30T13:02:29.954Z,1.00
2019-04-30T13:03:33.596Z,1.10
2019-04-30T13:04:39.236Z,1.37
2019-04-30T13:05:42.877Z,1.07
2019-04-30T13:06:48.705Z,1.00
2019-04-30T13:07:52.806Z,0.97
2019-04-30T13:08:59.838Z,0.90
2019-04-30T13:10:03.130Z,1.03
2019-04-30T13:11:10.220Z,1.03
2019-04-30T13:12:13.336Z,0.60
2019-04-30T13:13:17.951Z,0.90
2019-04-30T13:14:22.380Z,1.10
2019-04-30T13:15:26.607Z,1.10
2019-04-30T13:16:30.238Z,1.00
2019-04-30T13:17:34.624Z,1.30
2019-04-30T13:18:39.397Z,1.30
2019-04-30T13:19:43.192Z,1.20
2019-04-30T13:20:48.971Z,0.90
2019-04-30T13:21:52.764Z,0.97
2019-04-30T13:22:58.762Z,1.02
2019-04-30T13:24:02.135Z,1.10
2019-04-30T13:25:06.804Z,1.07
2019-04-30T13:26:10.595Z,1.10
2019-04-30T13:27:14.393Z,0.85
2019-04-30T13:28:19.690Z,1.10
2019-04-30T13:29:39.922Z,1.10
2019-04-30T13:30:43.693Z,1.33
2019-04-30T13:31:50.092Z,0.90
2019-04-30T13:32:59.287Z,0.80
2019-04-30T13:34:08.507Z,1.27
2019-04-30T13:35:12.586Z,1.07
2019-04-30T13:36:16.352Z,1.42
2019-04-30T13:37:20.090Z,0.90
2019-04-30T13:38:49.151Z,0.70
2019-04-30T13:39:53.998Z,1.07
2019-04-30T13:41:11.465Z,1.45
2019-04-30T13:42:18.601Z,0.95
2019-04-30T13:43:29.880Z,1.05
2019-04-30T13:44:35.290Z,0.82
2019-04-30T13:45:38.928Z,0.90
2019-04-30T13:46:42.676Z,1.00
2019-04-30T13:47:46.320Z,1.05
2019-04-30T13:48:50.184Z,0.85
2019-04-30T13:49:53.985Z,0.88
2019-04-30T13:50:57.640Z,0.90
2019-04-30T13:52:01.339Z,1.10
2019-04-30T13:53:05.228Z,0.82
2019-04-30T13:54:08.920Z,0.80
2019-04-30T13:55:12.864Z,0.90
2019-04-30T13:56:20.050Z,0.90
2019-04-30T13:57:21.893Z,1.17
2019-04-30T13:58:26.104Z,1.10
2019-04-30T13:59:29.915Z,0.93
2019-04-30T14:00:33.762Z,0.90
2019-04-30T14:01:39.091Z,0.80
2019-04-30T14:02:50.264Z,0.90
2019-04-30T14:03:59.044Z,0.68
2019-04-30T14:05:16.593Z,1.00
2019-04-30T14:06:24.700Z,0.90
2019-04-30T14:07:30.016Z,1.07
2019-04-30T14:08:41.292Z,0.65
2019-04-30T14:09:44.927Z,0.75
2019-04-30T14:10:49.319Z,0.60
2019-04-30T14:11:53.530Z,0.80
2019-04-30T14:12:58.818Z,0.75
2019-04-30T14:14:02.452Z,0.82
2019-04-30T14:15:09.312Z,0.80
2019-04-30T14:16:13.499Z,0.53
2019-04-30T14:17:19.025Z,0.90
2019-04-30T14:18:30.756Z,0.82
2019-04-30T14:19:29.517Z,1.02
2019-04-30T14:20:33.320Z,0.75
2019-04-30T14:21:38.995Z,1.00
2019-04-30T14:22:42.292Z,1.05
2019-04-30T14:23:45.940Z,1.17
2019-04-30T14:24:49.608Z,1.02
2019-04-30T14:25:56.671Z,1.47
2019-04-30T14:26:59.134Z,2.50
2019-04-30T14:28:02.865Z,1.90
2019-04-30T14:29:06.695Z,1.40